Time;durP1;ratioP1;P1;durP2;ratioP2;P2;SDS_P1;SDS_P2;PMS_P1;PMS_P2;Temp;Humidity;BMP_temperature;BMP_pressure;BME280_temperature;BME280_humidity;BME280_pressure;Samples;Min_cycle;Max_cycle;Signal;HPM_P1;HPM_P2
2022/06/04 00:02:01;;;;;;;2.03;1.80;;;22.80;54.40;;;;;;5065197;27;21189;-47
2022/06/04 00:04:45;;;;;;;2.20;2.00;;;22.80;54.40;;;;;;5121015;27;20516;-47
2022/06/04 00:07:26;;;;;;;2.00;1.90;;;22.80;54.50;;;;;;5049218;27;20554;-47
2022/06/04 00:16:11;;;;;;;3.43;2.37;;;22.80;54.30;;;;;;5094696;27;20536;-47
2022/06/04 00:18:51;;;;;;;3.17;2.10;;;22.80;54.20;;;;;;5069375;28;20533;-48
2022/06/04 00:21:34;;;;;;;2.40;2.20;;;22.80;54.20;;;;;;5074836;27;20616;-46
2022/06/04 00:24:13;;;;;;;2.53;1.85;;;22.80;54.30;;;;;;5144226;27;1203962;-47
2022/06/04 00:26:54;;;;;;;2.13;1.90;;;22.80;54.30;;;;;;5108493;27;20552;-46
2022/06/04 00:29:38;;;;;;;2.13;1.93;;;22.80;54.30;;;;;;5066835;28;20581;-47
2022/06/04 00:32:20;;;;;;;3.00;2.13;;;22.80;54.50;;;;;;5062613;27;20541;-47
2022/06/04 00:35:04;;;;;;;2.70;2.50;;;22.80;54.40;;;;;;5121625;27;20521;-47
2022/06/04 00:37:51;;;;;;;2.27;2.17;;;22.80;54.40;;;;;;5120520;27;20549;-46
2022/06/04 00:40:37;;;;;;;3.93;2.97;;;22.80;54.40;;;;;;5091553;27;20944;-47
2022/06/04 00:43:18;;;;;;;4.00;2.40;;;22.70;54.30;;;;;;5140378;27;1208787;-47
2022/06/04 00:46:32;;;;;;;2.30;2.20;;;22.80;54.50;;;;;;5073154;28;20529;-46
2022/06/04 00:49:18;;;;;;;2.60;2.40;;;22.80;54.60;;;;;;5095578;27;20597;-47
2022/06/04 00:52:08;;;;;;;2.10;1.90;;;22.80;54.50;;;;;;5057917;27;20549;-48
2022/06/04 00:54:52;;;;;;;1.97;1.77;;;22.80;54.50;;;;;;5079995;28;20581;-47
2022/06/04 00:57:49;;;;;;;2.90;2.60;;;22.80;54.50;;;;;;5060185;27;20574;-47
2022/06/04 01:00:36;;;;;;;2.53;2.33;;;22.80;54.30;;;;;;5114430;27;20516;-46
2022/06/04 01:03:32;;;;;;;2.10;1.80;;;22.80;54.30;;;;;;5075394;28;20524;-46
2022/06/04 01:06:30;;;;;;;2.77;1.80;;;22.70;54.30;;;;;;5076432;27;20600;-47
2022/06/04 01:09:36;;;;;;;4.23;2.60;;;22.70;54.40;;;;;;5107937;27;20924;-48
2022/06/04 01:12:54;;;;;;;2.10;1.80;;;22.80;54.50;;;;;;5054523;27;20610;-47
2022/06/04 01:15:51;;;;;;;2.47;2.27;;;22.70;54.50;;;;;;5111114;27;20940;-46
2022/06/04 01:18:42;;;;;;;2.57;2.37;;;22.70;54.40;;;;;;5108113;27;20955;-46
2022/06/04 01:21:33;;;;;;;2.80;2.50;;;22.70;54.40;;;;;;5090530;27;20543;-47
2022/06/04 01:24:40;;;;;;;2.17;1.97;;;22.70;55.60;;;;;;5103964;27;20566;-48
2022/06/04 01:27:27;;;;;;;2.70;2.10;;;22.70;54.40;;;;;;5062465;27;20665;-47
2022/06/04 01:30:11;;;;;;;2.13;2.03;;;22.70;54.40;;;;;;5042980;27;20542;-48
2022/06/04 01:32:57;;;;;;;2.50;2.20;;;22.70;54.40;;;;;;5124350;27;20578;-47
2022/06/04 01:35:45;;;;;;;3.50;3.00;;;22.70;54.40;;;;;;5116832;27;20595;-46
2022/06/04 01:38:32;;;;;;;2.40;2.20;;;22.70;54.40;;;;;;5071053;28;20616;-48
2022/06/04 01:41:22;;;;;;;2.60;2.40;;;22.70;54.40;;;;;;5072164;27;20548;-46
2022/06/04 01:44:09;;;;;;;1.90;1.80;;;22.70;54.40;;;;;;5115236;27;20537;-45
2022/06/04 01:46:54;;;;;;;2.30;2.10;;;22.70;54.40;;;;;;5098294;27;20546;-46
2022/06/04 01:49:42;;;;;;;3.10;1.97;;;22.70;54.50;;;;;;5080426;28;20598;-46
2022/06/04 01:52:26;;;;;;;2.00;1.90;;;22.70;54.40;;;;;;5084734;27;21538;-47
2022/06/04 01:55:14;;;;;;;2.20;2.10;;;22.70;54.40;;;;;;5080629;27;20504;-47
2022/06/04 01:57:59;;;;;;;2.27;2.07;;;22.70;54.50;;;;;;5079252;28;20527;-46
2022/06/04 02:00:48;;;;;;;2.00;1.80;;;22.70;54.50;;;;;;5109774;27;20595;-47
2022/06/04 02:03:33;;;;;;;2.63;2.00;;;22.70;54.50;;;;;;5122542;27;20505;-47
2022/06/04 02:06:19;;;;;;;3.10;2.47;;;22.70;54.70;;;;;;5109028;27;21110;-47
2022/06/04 02:09:06;;;;;;;2.00;1.90;;;22.70;54.50;;;;;;5117056;27;20535;-44
2022/06/04 02:11:54;;;;;;;2.40;2.30;;;22.70;54.50;;;;;;5067968;28;20948;-45
2022/06/04 02:14:39;;;;;;;2.53;1.90;;;22.70;54.30;;;;;;5073847;27;20581;-48
2022/06/04 02:17:24;;;;;;;2.40;2.20;;;22.70;54.30;;;;;;5071060;27;20672;-47
2022/06/04 02:20:06;;;;;;;2.07;1.87;;;22.70;54.20;;;;;;5082986;28;20578;-44
2022/06/04 02:22:46;;;;;;;2.20;2.10;;;22.70;54.30;;;;;;5067035;27;20601;-47
2022/06/04 02:25:29;;;;;;;2.70;2.30;;;22.70;54.30;;;;;;5077953;28;20595;-47
2022/06/04 02:28:12;;;;;;;2.53;2.10;;;22.70;54.30;;;;;;5149473;27;20551;-48
2022/06/04 02:31:06;;;;;;;2.30;2.10;;;22.70;54.30;;;;;;5075635;27;20967;-47
2022/06/04 02:33:58;;;;;;;2.10;2.00;;;22.70;54.30;;;;;;5121635;27;21120;-48
2022/06/04 02:36:45;;;;;;;2.47;2.27;;;22.60;54.10;;;;;;5065630;27;20537;-47
2022/06/04 02:39:32;;;;;;;2.37;2.17;;;22.60;54.10;;;;;;5060353;28;20578;-46
2022/06/04 02:42:22;;;;;;;2.50;2.10;;;22.70;54.10;;;;;;5063794;27;20824;-46
2022/06/04 02:45:08;;;;;;;2.40;2.30;;;22.60;54.10;;;;;;5059695;28;20533;-46
2022/06/04 02:47:56;;;;;;;2.10;1.90;;;22.60;54.10;;;;;;5081415;27;20870;-47
2022/06/04 02:50:41;;;;;;;2.13;2.00;;;22.60;54.20;;;;;;5110493;27;20549;-48
2022/06/04 02:53:21;;;;;;;2.40;2.13;;;22.60;54.30;;;;;;5059531;27;20537;-46
2022/06/04 02:56:08;;;;;;;2.93;2.73;;;22.60;54.30;;;;;;5072728;28;20565;-48
2022/06/04 02:58:53;;;;;;;2.30;2.10;;;22.60;54.20;;;;;;5072182;27;20540;-47
2022/06/04 03:01:38;;;;;;;2.30;2.10;;;22.60;54.20;;;;;;5087144;27;20957;-47
2022/06/04 03:04:25;;;;;;;2.20;2.00;;;22.60;54.20;;;;;;5080216;28;20928;-47
2022/06/04 03:07:09;;;;;;;2.47;2.37;;;22.60;54.20;;;;;;5071179;27;20622;-48
2022/06/04 03:09:53;;;;;;;2.40;2.20;;;22.60;54.20;;;;;;5081307;28;20581;-45
2022/06/04 03:12:35;;;;;;;2.20;2.00;;;22.60;54.20;;;;;;5062212;27;20947;-46
2022/06/04 03:15:16;;;;;;;2.07;1.93;;;22.60;54.20;;;;;;5093132;27;20553;-47
2022/06/04 03:18:03;;;;;;;3.90;1.93;;;22.60;54.30;;;;;;5122971;27;20602;-47
2022/06/04 03:20:45;;;;;;;2.30;2.10;;;22.60;54.30;;;;;;5071256;27;20552;-48
2022/06/04 03:23:27;;;;;;;1.67;1.57;;;22.60;54.30;;;;;;5137680;27;1454591;-47
2022/06/04 03:26:08;;;;;;;3.20;2.20;;;22.60;54.30;;;;;;5064929;27;20546;-48
2022/06/04 03:28:50;;;;;;;1.70;1.60;;;22.60;54.40;;;;;;5072353;27;20623;-47
2022/06/04 03:31:31;;;;;;;2.00;1.90;;;22.50;54.40;;;;;;5089039;27;20540;-45
2022/06/04 03:34:13;;;;;;;2.43;2.20;;;22.50;54.20;;;;;;5080805;28;20556;-47
2022/06/04 03:36:54;;;;;;;2.13;2.03;;;22.50;54.30;;;;;;5080021;27;20621;-45
2022/06/04 03:39:35;;;;;;;4.23;2.00;;;22.50;54.20;;;;;;5090099;27;20536;-47
2022/06/04 03:42:21;;;;;;;1.73;1.63;;;22.50;54.30;;;;;;5070109;27;20628;-48
2022/06/04 03:45:01;;;;;;;2.50;2.23;;;22.50;54.30;;;;;;5077048;28;20597;-47
2022/06/04 03:47:43;;;;;;;2.93;2.17;;;22.50;54.20;;;;;;5078028;27;20566;-47
2022/06/04 03:50:25;;;;;;;3.10;2.50;;;22.50;54.30;;;;;;5080006;28;20522;-45
2022/06/04 03:53:10;;;;;;;2.03;1.90;;;22.50;54.20;;;;;;5122694;27;20518;-47
2022/06/04 03:55:54;;;;;;;2.23;1.77;;;22.50;54.30;;;;;;5075732;28;21058;-48
2022/06/04 03:58:34;;;;;;;2.37;2.17;;;22.50;54.20;;;;;;5110710;27;20577;-46
2022/06/04 04:01:18;;;;;;;2.37;2.17;;;22.50;54.30;;;;;;5095097;27;21131;-47
2022/06/04 04:04:01;;;;;;;2.10;2.00;;;22.50;54.30;;;;;;5122951;27;20601;-47
2022/06/04 04:06:43;;;;;;;2.00;1.90;;;22.50;54.30;;;;;;5068820;27;20545;-46
2022/06/04 04:09:23;;;;;;;2.07;1.97;;;22.50;54.30;;;;;;5085382;27;20539;-46
2022/06/04 04:12:06;;;;;;;1.97;1.60;;;22.50;54.30;;;;;;5075523;27;20606;-48
2022/06/04 04:14:49;;;;;;;2.50;2.30;;;22.50;54.40;;;;;;5103566;27;20589;-48
2022/06/04 04:17:31;;;;;;;2.50;2.27;;;22.50;54.40;;;;;;5063592;27;21147;-46
2022/06/04 04:20:15;;;;;;;3.23;2.30;;;22.50;54.40;;;;;;5123398;27;20500;-47
2022/06/04 04:22:59;;;;;;;2.27;2.17;;;22.50;54.50;;;;;;5081153;27;20530;-47
2022/06/04 04:25:41;;;;;;;2.63;2.43;;;22.50;54.40;;;;;;5076845;28;20560;-47
2022/06/04 04:28:21;;;;;;;2.07;1.87;;;22.50;54.40;;;;;;5076479;28;20555;-48
2022/06/04 04:31:09;;;;;;;1.83;1.73;;;22.50;54.50;;;;;;5101479;27;20567;-47
2022/06/04 04:33:51;;;;;;;2.30;1.73;;;22.50;54.50;;;;;;5122781;27;20515;-47
2022/06/04 04:36:32;;;;;;;2.30;2.20;;;22.40;54.50;;;;;;5082156;27;20800;-47
2022/06/04 04:39:14;;;;;;;2.20;2.00;;;22.50;54.50;;;;;;5122641;27;20569;-47
2022/06/04 04:41:55;;;;;;;4.17;2.10;;;22.50;54.50;;;;;;5052479;28;21004;-47
2022/06/04 04:44:36;;;;;;;2.00;1.83;;;22.40;54.60;;;;;;5115533;27;20618;-46
2022/06/04 04:47:18;;;;;;;2.30;1.77;;;22.40;54.60;;;;;;5070535;27;21099;-47
2022/06/04 04:49:59;;;;;;;1.93;1.80;;;22.40;54.70;;;;;;5081859;28;20517;-47
2022/06/04 04:52:41;;;;;;;2.07;1.97;;;22.40;54.60;;;;;;5097959;27;21131;-47
2022/06/04 04:55:22;;;;;;;2.60;2.00;;;22.40;54.60;;;;;;5079267;28;20920;-47
2022/06/04 04:58:04;;;;;;;1.83;1.73;;;22.40;54.60;;;;;;5079670;28;20538;-47
2022/06/04 05:00:44;;;;;;;2.30;2.10;;;22.40;54.70;;;;;;5080083;28;20595;-66
2022/06/04 05:03:26;;;;;;;3.10;2.00;;;22.40;54.50;;;;;;5082245;27;20574;-47
2022/06/04 05:06:07;;;;;;;2.23;2.07;;;22.40;54.50;;;;;;5098114;27;20536;-47
2022/06/04 05:08:52;;;;;;;2.00;1.90;;;22.40;54.50;;;;;;5060843;27;20543;-46
2022/06/04 05:11:34;;;;;;;1.83;1.73;;;22.40;54.50;;;;;;5068181;27;20985;-47
2022/06/04 05:14:15;;;;;;;2.67;2.47;;;22.40;54.50;;;;;;5074900;28;21113;-47
2022/06/04 05:16:56;;;;;;;2.27;2.07;;;22.40;54.50;;;;;;5066913;28;20575;-47
2022/06/04 05:19:41;;;;;;;1.90;1.80;;;22.40;54.60;;;;;;5081791;28;20536;-47
2022/06/04 05:22:22;;;;;;;2.37;2.00;;;22.40;54.70;;;;;;5051384;27;20551;-47
2022/06/04 05:25:04;;;;;;;1.97;1.87;;;22.40;54.70;;;;;;5121815;27;21112;-48
2022/06/04 05:27:45;;;;;;;2.40;2.20;;;22.40;54.70;;;;;;5080905;27;20579;-47
2022/06/04 05:30:26;;;;;;;2.10;2.00;;;22.40;54.50;;;;;;5115352;27;20959;-47
2022/06/04 05:33:07;;;;;;;2.93;2.10;;;22.40;54.50;;;;;;5082134;28;21023;-48
2022/06/04 05:35:46;;;;;;;2.80;2.58;;;22.40;54.50;;;;;;5125121;27;1218646;-47
2022/06/04 05:38:27;;;;;;;2.57;2.37;;;22.40;54.50;;;;;;5071482;28;20546;-47
2022/06/04 05:41:09;;;;;;;1.90;1.80;;;22.40;54.40;;;;;;5079549;27;20597;-47
2022/06/04 05:43:50;;;;;;;2.13;2.00;;;22.40;54.60;;;;;;5119322;27;20530;-47
2022/06/04 05:46:30;;;;;;;2.10;2.00;;;22.40;54.70;;;;;;5089056;27;20686;-47
2022/06/04 05:49:13;;;;;;;1.97;1.87;;;22.40;54.80;;;;;;5080907;27;20643;-47
2022/06/04 05:51:54;;;;;;;2.50;2.23;;;22.40;54.70;;;;;;5079720;27;20961;-47
2022/06/04 05:54:35;;;;;;;2.20;2.10;;;22.40;54.60;;;;;;5061757;28;20596;-46
2022/06/04 05:57:16;;;;;;;2.07;1.97;;;22.40;54.60;;;;;;5046711;28;20564;-46
2022/06/04 05:59:57;;;;;;;2.20;2.10;;;22.40;54.60;;;;;;5080326;28;20933;-46
2022/06/04 06:02:38;;;;;;;2.97;2.67;;;22.40;54.60;;;;;;5061034;27;20641;-48
2022/06/04 06:05:18;;;;;;;3.73;2.30;;;22.40;54.60;;;;;;5080180;28;20569;-47
2022/06/04 06:07:59;;;;;;;2.47;2.20;;;22.40;54.70;;;;;;5052418;28;20614;-47
2022/06/04 06:10:44;;;;;;;2.00;1.90;;;22.40;54.60;;;;;;5110413;27;20526;-47
2022/06/04 06:13:24;;;;;;;1.93;1.80;;;22.40;54.70;;;;;;5077780;28;20535;-46
2022/06/04 06:16:07;;;;;;;1.90;1.80;;;22.40;54.80;;;;;;5064303;27;20920;-47
2022/06/04 06:18:49;;;;;;;2.50;2.20;;;22.40;54.80;;;;;;5163221;27;20612;-46
2022/06/04 06:21:32;;;;;;;2.23;2.03;;;22.40;54.90;;;;;;5105498;27;21450;-47
2022/06/04 06:24:16;;;;;;;1.80;1.70;;;22.40;56.10;;;;;;5073022;27;20876;-47
2022/06/04 06:27:00;;;;;;;1.97;1.87;;;22.40;54.90;;;;;;5106797;27;20708;-48
2022/06/04 06:29:40;;;;;;;4.40;2.50;;;22.30;54.90;;;;;;5075618;28;20589;-47
2022/06/04 06:32:21;;;;;;;3.87;2.40;;;22.40;54.90;;;;;;5069267;27;20576;-47
2022/06/04 06:35:01;;;;;;;2.23;2.00;;;22.40;54.80;;;;;;5102233;27;21177;-46
2022/06/04 06:37:41;;;;;;;2.60;1.97;;;22.30;54.80;;;;;;5079599;28;20682;-45
2022/06/04 06:40:23;;;;;;;2.10;1.87;;;22.30;54.70;;;;;;5101976;27;20647;-46
2022/06/04 06:43:05;;;;;;;2.23;1.80;;;22.30;54.80;;;;;;5079174;28;20506;-47
2022/06/04 06:45:46;;;;;;;2.03;1.93;;;22.30;54.80;;;;;;5105583;27;20618;-47
2022/06/04 06:48:27;;;;;;;2.30;2.10;;;22.30;54.80;;;;;;5065938;27;20594;-47
2022/06/04 06:51:17;;;;;;;2.10;2.00;;;22.30;54.80;;;;;;5065429;28;20551;-49
2022/06/04 06:53:58;;;;;;;2.40;2.27;;;22.30;54.80;;;;;;5102065;27;20597;-46
2022/06/04 06:56:42;;;;;;;2.60;2.20;;;22.30;54.80;;;;;;5066041;27;20549;-47
2022/06/04 06:59:24;;;;;;;1.73;1.63;;;22.30;54.70;;;;;;5097545;27;20556;-47
2022/06/04 07:02:07;;;;;;;2.00;1.83;;;22.30;54.90;;;;;;5069704;27;21012;-47
2022/06/04 07:04:49;;;;;;;2.17;2.07;;;22.30;54.90;;;;;;5058975;27;20605;-47
2022/06/04 07:07:31;;;;;;;2.70;2.03;;;22.30;54.90;;;;;;5052979;27;20994;-47
2022/06/04 07:10:14;;;;;;;2.17;1.97;;;22.30;55.00;;;;;;5097081;27;20540;-46
2022/06/04 07:12:56;;;;;;;1.80;1.60;;;22.30;55.10;;;;;;5079882;27;20655;-47
2022/06/04 07:15:38;;;;;;;3.90;1.80;;;22.30;55.10;;;;;;5052819;28;20623;-47
2022/06/04 07:18:19;;;;;;;4.60;1.90;;;22.30;55.10;;;;;;5081507;28;20545;-47
2022/06/04 07:21:00;;;;;;;2.50;2.30;;;22.30;55.00;;;;;;5074925;28;21458;-47
2022/06/04 07:23:40;;;;;;;3.83;2.00;;;22.30;55.10;;;;;;5131402;27;1190275;-47
2022/06/04 07:26:21;;;;;;;2.30;2.10;;;22.30;55.10;;;;;;5105600;27;21165;-45
2022/06/04 07:29:04;;;;;;;5.30;3.47;;;22.30;55.10;;;;;;5057006;27;20697;-47
2022/06/04 07:31:44;;;;;;;4.70;3.60;;;22.20;54.90;;;;;;5069595;27;20546;-47
2022/06/04 07:34:27;;;;;;;3.13;2.90;;;22.20;55.10;;;;;;5129469;27;20331;-47
2022/06/04 07:37:09;;;;;;;3.03;2.83;;;22.10;54.90;;;;;;5054431;27;21010;-47
2022/06/04 07:39:50;;;;;;;3.20;2.90;;;22.20;55.10;;;;;;5079351;28;20532;-47
2022/06/04 07:42:32;;;;;;;2.80;2.60;;;22.20;55.00;;;;;;5078213;27;20574;-46
2022/06/04 07:45:14;;;;;;;2.50;2.30;;;22.20;55.10;;;;;;5098254;27;21078;-47
2022/06/04 07:47:55;;;;;;;2.60;2.40;;;22.20;55.00;;;;;;5059229;27;21171;-47
2022/06/04 07:50:38;;;;;;;2.50;2.30;;;22.20;54.90;;;;;;5053779;27;21210;-47
2022/06/04 07:53:21;;;;;;;2.53;2.30;;;22.20;54.90;;;;;;5074615;28;20528;-47
2022/06/04 07:56:07;;;;;;;2.83;2.60;;;22.20;54.90;;;;;;5078904;27;20554;-47
2022/06/04 07:58:52;;;;;;;4.40;2.50;;;22.20;54.90;;;;;;5062945;28;20961;-45
2022/06/04 08:01:36;;;;;;;6.50;3.60;;;22.30;55.10;;;;;;5086578;27;20353;-48
2022/06/04 08:04:18;;;;;;;3.50;3.30;;;22.20;55.20;;;;;;5132749;27;20319;-47
2022/06/04 08:07:02;;;;;;;2.83;2.63;;;22.20;55.30;;;;;;5075114;27;20585;-46
2022/06/04 08:09:48;;;;;;;2.37;2.17;;;22.20;55.30;;;;;;5100891;27;20644;-48
2022/06/04 08:12:31;;;;;;;2.90;2.40;;;22.20;55.20;;;;;;5043892;27;20649;-47
2022/06/04 08:15:14;;;;;;;3.03;2.73;;;22.20;55.30;;;;;;5068762;28;20549;-47
2022/06/04 08:17:55;;;;;;;3.03;2.83;;;22.20;55.30;;;;;;5135151;27;21367;-46
2022/06/04 08:20:41;;;;;;;2.53;2.33;;;22.20;55.20;;;;;;5076175;27;20503;-47
2022/06/04 08:23:23;;;;;;;3.07;2.47;;;22.20;55.10;;;;;;5120242;27;20539;-48
2022/06/04 08:26:05;;;;;;;4.37;2.47;;;22.20;55.30;;;;;;5069879;27;20564;-47
2022/06/04 08:28:46;;;;;;;2.27;2.07;;;22.30;55.30;;;;;;5064905;28;20949;-48
2022/06/04 08:31:27;;;;;;;2.70;2.37;;;22.20;55.20;;;;;;5090547;27;20617;-46
2022/06/04 08:34:09;;;;;;;3.10;2.80;;;22.20;55.10;;;;;;5091250;27;21078;-48
2022/06/04 08:36:50;;;;;;;3.40;3.20;;;22.20;55.30;;;;;;5063189;27;20657;-46
2022/06/04 08:39:32;;;;;;;4.60;3.13;;;22.20;55.30;;;;;;5078168;27;20574;-47
2022/06/04 08:42:40;;;;;;;4.55;2.65;;;22.30;55.40;;;;;;5064187;27;21060;-48
2022/06/04 08:45:22;;;;;;;3.20;2.90;;;22.30;55.20;;;;;;5080636;27;20516;-48
2022/06/04 08:48:03;;;;;;;4.60;3.10;;;22.30;55.30;;;;;;5088832;27;20544;-47
2022/06/04 08:50:45;;;;;;;2.73;2.53;;;22.30;55.10;;;;;;5073630;27;20982;-48
2022/06/04 08:53:28;;;;;;;4.20;2.20;;;22.30;55.30;;;;;;5075484;27;21106;-47
2022/06/04 08:59:34;;;;;;;2.70;2.13;;;22.30;55.10;;;;;;5132426;27;20953;-48
2022/06/04 09:02:22;;;;;;;2.63;2.43;;;22.30;55.20;;;;;;5058531;27;20549;-46
2022/06/04 09:05:09;;;;;;;2.70;2.50;;;22.30;55.30;;;;;;5075542;28;20960;-48
2022/06/04 09:07:56;;;;;;;2.73;2.43;;;22.30;55.40;;;;;;5119961;27;21141;-47
2022/06/04 09:10:42;;;;;;;3.23;3.00;;;22.30;55.30;;;;;;5114802;27;20940;-47
2022/06/04 09:13:27;;;;;;;2.10;2.00;;;22.30;55.30;;;;;;5118754;27;20521;-47
2022/06/04 09:16:17;;;;;;;2.80;2.60;;;22.30;55.20;;;;;;5071922;27;20571;-47
2022/06/04 09:19:03;;;;;;;3.33;2.87;;;22.30;55.40;;;;;;5081914;28;20582;-47
2022/06/04 09:21:46;;;;;;;4.60;2.50;;;22.20;55.20;;;;;;5065669;27;20545;-48
2022/06/04 09:24:31;;;;;;;4.33;2.90;;;22.20;55.30;;;;;;5121462;27;20575;-48
2022/06/04 09:27:26;;;;;;;3.10;2.80;;;22.30;55.30;;;;;;5057262;27;20550;-47
2022/06/04 09:30:19;;;;;;;5.20;2.53;;;22.20;55.10;;;;;;5062017;28;20533;-48
2022/06/04 09:33:14;;;;;;;4.17;3.17;;;22.20;55.30;;;;;;5074762;27;20529;-47
2022/06/04 09:35:56;;;;;;;2.80;2.70;;;22.20;55.30;;;;;;5073869;27;20624;-47
2022/06/04 09:38:37;;;;;;;3.00;2.80;;;22.30;55.40;;;;;;5109441;27;20608;-48
2022/06/04 09:41:23;;;;;;;2.50;2.30;;;22.20;55.30;;;;;;5096534;27;20633;-46
2022/06/04 09:44:08;;;;;;;3.07;2.80;;;22.20;55.40;;;;;;5071931;28;20527;-46
2022/06/04 09:46:56;;;;;;;3.30;2.63;;;22.20;55.50;;;;;;5062352;28;22995;-47
2022/06/04 09:49:40;;;;;;;3.10;2.70;;;22.20;55.80;;;;;;5075522;27;20941;-47
2022/06/04 09:52:26;;;;;;;5.60;3.30;;;22.20;55.60;;;;;;5059980;27;20542;-47
2022/06/04 09:55:22;;;;;;;3.17;2.93;;;22.20;55.70;;;;;;5082185;27;21102;-47
2022/06/04 09:58:07;;;;;;;3.17;2.43;;;22.20;55.80;;;;;;5066614;28;21073;-47
2022/06/04 10:01:01;;;;;;;2.60;2.30;;;22.30;55.90;;;;;;5054305;28;20600;-48
2022/06/04 10:03:43;;;;;;;2.80;2.60;;;22.30;55.80;;;;;;5099700;27;21618;-48
2022/06/04 10:06:25;;;;;;;3.20;2.73;;;22.20;55.70;;;;;;5053860;27;20594;-47
2022/06/04 10:12:21;;;;;;;2.97;2.77;;;22.30;55.80;;;;;;5022603;27;20548;-46
2022/06/04 10:15:05;;;;;;;2.73;2.53;;;22.30;55.70;;;;;;5114621;27;20890;-46
2022/06/04 10:17:45;;;;;;;2.27;2.17;;;22.20;55.90;;;;;;5098317;27;20546;-47
2022/06/04 10:20:27;;;;;;;2.60;2.40;;;22.30;55.90;;;;;;5080352;28;20613;-46
2022/06/04 10:23:14;;;;;;;3.10;2.90;;;22.30;56.10;;;;;;5121496;27;20533;-47
2022/06/04 10:26:25;;;;;;;2.90;2.70;;;22.20;55.80;;;;;;5092583;27;20612;-47
2022/06/04 10:29:32;;;;;;;7.83;3.27;;;22.30;55.90;;;;;;5107424;27;21064;-47
2022/06/04 10:32:24;;;;;;;5.00;2.90;;;22.30;56.20;;;;;;5090055;27;20965;-47
2022/06/04 10:35:44;;;;;;;4.03;3.17;;;22.30;56.20;;;;;;5073899;27;21390;-47
2022/06/04 10:38:43;;;;;;;5.43;2.90;;;22.30;56.20;;;;;;5060824;27;20587;-47
2022/06/04 10:41:35;;;;;;;2.87;2.67;;;22.30;56.30;;;;;;5140369;27;20600;-47
2022/06/04 10:44:36;;;;;;;3.33;2.27;;;22.30;56.40;;;;;;5074848;27;20526;-47
2022/06/04 10:47:25;;;;;;;4.40;2.63;;;22.30;56.30;;;;;;5049595;28;20608;-47
2022/06/04 10:50:30;;;;;;;3.27;2.97;;;22.30;56.20;;;;;;5122943;27;20569;-47
2022/06/04 10:53:22;;;;;;;2.70;2.50;;;22.30;56.20;;;;;;5097186;27;20534;-47
2022/06/04 10:56:08;;;;;;;2.97;2.70;;;22.30;56.20;;;;;;5118853;22;20532;-65
2022/06/04 10:58:59;;;;;;;3.57;3.23;;;22.30;56.20;;;;;;5070105;27;20552;-48
2022/06/04 11:01:48;;;;;;;2.80;2.60;;;22.30;56.40;;;;;;5098812;27;20582;-47
2022/06/04 11:04:38;;;;;;;3.50;2.30;;;22.30;57.50;;;;;;5077287;27;21054;-48
2022/06/04 11:07:34;;;;;;;2.27;2.07;;;22.30;56.30;;;;;;5059954;27;20612;-47
2022/06/04 11:10:19;;;;;;;2.23;2.10;;;22.30;56.20;;;;;;5121293;27;20582;-49
2022/06/04 11:13:07;;;;;;;2.40;2.20;;;22.30;56.30;;;;;;5116425;27;20959;-48
2022/06/04 11:15:52;;;;;;;2.87;2.43;;;22.30;56.40;;;;;;5112775;27;20536;-49
2022/06/04 11:18:42;;;;;;;2.57;2.37;;;22.30;56.40;;;;;;5071815;27;20544;-50
2022/06/04 11:21:29;;;;;;;2.43;2.33;;;22.30;56.40;;;;;;5060617;27;20529;-49
2022/06/04 11:24:17;;;;;;;2.97;2.77;;;22.30;56.40;;;;;;5117241;27;20528;-49
2022/06/04 11:27:03;;;;;;;3.60;3.10;;;22.30;56.50;;;;;;5106548;27;20906;-49
2022/06/04 11:29:44;;;;;;;3.60;3.30;;;22.30;56.50;;;;;;5108967;27;20561;-50
2022/06/04 11:32:33;;;;;;;3.10;2.80;;;22.40;56.60;;;;;;5063081;27;20537;-47
2022/06/04 11:35:31;;;;;;;3.17;2.87;;;22.30;56.50;;;;;;5119868;27;20578;-48
2022/06/04 11:38:42;;;;;;;3.60;3.30;;;22.30;56.50;;;;;;5088429;27;20543;-48
2022/06/04 11:41:31;;;;;;;3.07;2.60;;;22.40;56.70;;;;;;5066424;27;20606;-51
2022/06/04 11:44:34;;;;;;;2.73;2.50;;;22.40;56.70;;;;;;5115154;27;20513;-47
2022/06/04 11:47:25;;;;;;;2.67;2.20;;;22.40;56.90;;;;;;5050523;27;20605;-49
2022/06/04 11:50:13;;;;;;;3.33;3.03;;;22.40;56.80;;;;;;5081804;27;20514;-48
2022/06/04 11:53:03;;;;;;;2.43;2.23;;;22.40;56.90;;;;;;5092557;27;21272;-48
2022/06/04 11:55:51;;;;;;;2.60;2.40;;;22.40;56.90;;;;;;5108030;27;21094;-48
2022/06/04 11:58:54;;;;;;;2.93;2.73;;;22.40;56.90;;;;;;5061036;28;21130;-48
2022/06/04 12:01:40;;;;;;;3.70;3.20;;;22.40;57.00;;;;;;5109458;27;20542;-47
2022/06/04 12:04:34;;;;;;;2.50;2.40;;;22.40;57.00;;;;;;5076832;28;20562;-46
2022/06/04 12:07:20;;;;;;;2.87;2.60;;;22.40;57.00;;;;;;5056056;27;20606;-51
2022/06/04 12:10:06;;;;;;;5.67;2.60;;;22.40;57.00;;;;;;5076410;28;20590;-48
2022/06/04 12:12:52;;;;;;;4.80;2.50;;;22.40;57.10;;;;;;5059182;28;21126;-48
2022/06/04 12:15:40;;;;;;;2.80;2.07;;;22.40;58.20;;;;;;5053711;27;20963;-48
2022/06/04 12:18:28;;;;;;;2.80;2.60;;;22.40;57.00;;;;;;5115927;27;20563;-48
2022/06/04 12:24:34;;;;;;;3.20;2.80;;;22.40;57.10;;;;;;5120250;27;20525;-50
2022/06/04 12:27:22;;;;;;;2.53;2.33;;;22.40;57.20;;;;;;5068061;28;20537;-66
2022/06/04 12:30:15;;;;;;;2.83;2.50;;;22.40;57.10;;;;;;5073674;27;21122;-48
2022/06/04 12:32:57;;;;;;;4.70;2.10;;;22.40;57.10;;;;;;5080861;28;20507;-49
2022/06/04 12:35:37;;;;;;;2.70;2.50;;;22.40;57.20;;;;;;5074784;27;20568;-48
2022/06/04 12:38:23;;;;;;;2.63;2.20;;;22.40;57.20;;;;;;5075701;28;20543;-47
2022/06/04 12:41:14;;;;;;;2.43;2.23;;;22.40;57.20;;;;;;5094487;27;20544;-48
2022/06/04 12:44:01;;;;;;;2.50;2.30;;;22.40;57.20;;;;;;5075802;27;20885;-48
2022/06/04 12:46:42;;;;;;;2.37;2.17;;;22.40;57.40;;;;;;5073066;27;20590;-46
2022/06/04 12:49:42;;;;;;;3.00;2.80;;;22.40;57.30;;;;;;5119864;27;20517;-49
2022/06/04 12:52:41;;;;;;;2.67;2.47;;;22.50;57.50;;;;;;5051948;27;20553;-47
2022/06/04 12:55:26;;;;;;;2.33;2.13;;;22.50;57.50;;;;;;5116306;27;20600;-50
2022/06/04 12:58:28;;;;;;;2.50;2.30;;;22.50;57.50;;;;;;5121883;27;20792;-48
2022/06/04 13:01:33;;;;;;;2.47;2.30;;;22.50;57.50;;;;;;5060648;27;20535;-49
2022/06/04 13:04:23;;;;;;;2.77;2.57;;;22.50;57.50;;;;;;5119317;27;20524;-49
2022/06/04 13:07:18;;;;;;;3.47;3.10;;;22.50;57.50;;;;;;5071974;27;20836;-48
2022/06/04 13:10:06;;;;;;;2.95;2.75;;;22.50;57.50;;;;;;5079990;27;20439;-46
2022/06/04 13:12:59;;;;;;;3.40;2.20;;;22.50;58.10;;;;;;5077862;28;20532;-49
2022/06/04 13:15:52;;;;;;;3.00;2.80;;;22.50;57.90;;;;;;5068478;27;20542;-49
2022/06/04 13:18:37;;;;;;;3.10;2.90;;;22.50;58.00;;;;;;5116476;27;20884;-50
2022/06/04 13:21:21;;;;;;;3.43;3.10;;;22.50;57.90;;;;;;5100124;27;20661;-49
2022/06/04 13:24:07;;;;;;;3.93;3.63;;;22.50;57.80;;;;;;5078828;28;20553;-48
2022/06/04 13:26:54;;;;;;;3.60;3.30;;;22.50;57.80;;;;;;5035061;27;20598;-50
2022/06/04 13:29:37;;;;;;;3.53;3.23;;;22.50;57.80;;;;;;5075826;28;20537;-65
2022/06/04 13:32:22;;;;;;;3.10;2.90;;;22.60;58.00;;;;;;4968697;28;20555;-50
2022/06/04 13:35:06;;;;;;;4.03;3.33;;;22.50;59.10;;;;;;5077575;27;20562;-49
2022/06/04 13:38:03;;;;;;;3.40;3.10;;;22.60;58.10;;;;;;5068651;28;20583;-48
2022/06/04 13:40:43;;;;;;;3.90;3.60;;;22.60;58.10;;;;;;5061333;27;20667;-46
2022/06/04 13:43:27;;;;;;;6.40;4.03;;;22.60;58.30;;;;;;5126017;27;1207821;-48
2022/06/04 13:46:15;;;;;;;3.20;3.00;;;22.60;58.20;;;;;;5071586;28;20547;-48
2022/06/04 13:49:05;;;;;;;3.50;3.07;;;22.70;58.30;;;;;;5096724;27;20628;-48
2022/06/04 13:51:48;;;;;;;3.80;3.50;;;22.70;58.30;;;;;;5128136;27;20548;-47
2022/06/04 13:54:29;;;;;;;3.57;3.30;;;22.70;58.30;;;;;;5110498;27;20533;-48
2022/06/04 13:57:20;;;;;;;4.17;3.77;;;22.70;58.70;;;;;;5104392;27;20549;-49
2022/06/04 14:00:08;;;;;;;3.23;3.00;;;22.70;58.90;;;;;;5067799;27;20598;-49
2022/06/04 14:02:51;;;;;;;3.60;3.40;;;22.70;58.70;;;;;;5079334;28;20520;-49
2022/06/04 14:05:46;;;;;;;3.47;3.27;;;22.70;58.60;;;;;;5102234;27;20559;-49
2022/06/04 14:08:30;;;;;;;3.33;3.13;;;22.70;58.60;;;;;;5052298;27;20579;-50
2022/06/04 14:11:24;;;;;;;3.80;3.50;;;22.70;58.50;;;;;;5099037;27;20620;-51
2022/06/04 14:14:20;;;;;;;3.57;3.33;;;22.70;58.70;;;;;;5098034;27;20606;-49
2022/06/04 14:17:15;;;;;;;3.83;3.63;;;22.70;58.60;;;;;;5061202;27;20713;-46
2022/06/04 14:20:09;;;;;;;4.03;3.73;;;22.80;58.40;;;;;;5121548;27;20945;-47
2022/06/04 14:23:08;;;;;;;6.25;5.63;;;22.80;58.70;;;;;;5118113;27;20501;-49
2022/06/04 14:25:56;;;;;;;7.37;4.70;;;22.90;60.00;;;;;;5110422;27;20601;-48
2022/06/04 14:28:50;;;;;;;6.07;4.87;;;22.90;59.80;;;;;;5091453;27;20928;-48
2022/06/04 14:31:43;;;;;;;5.23;4.80;;;22.90;59.70;;;;;;5101390;27;20582;-47
2022/06/04 14:34:34;;;;;;;6.03;5.63;;;22.90;59.70;;;;;;5121635;27;21003;-48
2022/06/04 14:37:25;;;;;;;5.47;5.00;;;22.90;59.70;;;;;;5075279;27;21181;-48
2022/06/04 14:40:08;;;;;;;5.53;5.20;;;22.90;59.60;;;;;;5113757;27;20956;-48